createdAt,value
2023-04-21T00:02:15.908Z,7.54
2023-04-21T00:04:42.466Z,7.45
2023-04-21T00:07:08.884Z,7.43
2023-04-21T00:09:35.237Z,7.41
2023-04-21T00:12:01.639Z,7.44
2023-04-21T00:14:28.082Z,7.41
2023-04-21T00:16:54.392Z,7.40
2023-04-21T00:19:21.004Z,7.33
2023-04-21T00:21:47.571Z,7.39
2023-04-21T00:24:13.893Z,7.39
2023-04-21T00:26:40.225Z,7.44
2023-04-21T00:29:07.049Z,7.41
2023-04-21T00:31:34.017Z,7.42
2023-04-21T00:34:00.428Z,7.42
2023-04-21T00:36:28.295Z,7.43
2023-04-21T00:38:54.938Z,7.47
2023-04-21T00:41:21.731Z,7.47
2023-04-21T00:44:01.280Z,7.52
2023-04-21T00:46:28.739Z,7.54
2023-04-21T00:48:55.132Z,7.52
2023-04-21T00:51:21.577Z,7.55
2023-04-21T00:53:48.153Z,7.58
2023-04-21T00:56:14.529Z,7.59
2023-04-21T00:58:42.542Z,7.59
2023-04-21T01:01:08.902Z,7.61
2023-04-21T01:03:35.828Z,7.59
2023-04-21T01:06:02.989Z,7.60
2023-04-21T01:08:29.488Z,7.58
2023-04-21T01:10:56.145Z,7.61
2023-04-21T01:13:22.504Z,7.58
2023-04-21T01:15:49.281Z,7.60
2023-04-21T01:18:16.981Z,7.64
2023-04-21T01:20:44.672Z,7.66
2023-04-21T01:23:11.025Z,7.61
2023-04-21T01:25:37.351Z,7.58
2023-04-21T01:28:04.057Z,7.61
2023-04-21T01:30:30.537Z,7.54
2023-04-21T01:33:00.142Z,7.53
2023-04-21T01:35:26.633Z,7.49
2023-04-21T01:37:53.111Z,7.48
2023-04-21T01:40:19.551Z,7.49
2023-04-21T01:42:45.913Z,7.49
2023-04-21T01:45:13.110Z,7.53
2023-04-21T01:47:39.595Z,7.51
2023-04-21T01:50:06.426Z,7.50
2023-04-21T01:52:32.740Z,7.49
2023-04-21T01:55:00.072Z,7.45
2023-04-21T01:57:26.657Z,7.49
2023-04-21T01:59:53.080Z,7.45
2023-04-21T02:02:19.577Z,7.40
2023-04-21T02:04:46.019Z,7.36
2023-04-21T02:07:12.421Z,7.41
2023-04-21T02:09:40.267Z,7.46
2023-04-21T02:12:07.055Z,7.44
2023-04-21T02:14:33.393Z,7.38
2023-04-21T02:16:59.812Z,7.44
2023-04-21T02:19:26.330Z,7.37
2023-04-21T02:21:54.389Z,7.41
2023-04-21T02:24:21.857Z,7.41
2023-04-21T02:26:48.184Z,7.37
2023-04-21T02:29:14.531Z,7.38
2023-04-21T02:31:57.301Z,7.39
2023-04-21T02:34:27.497Z,7.32
2023-04-21T02:36:54.408Z,7.32
2023-04-21T02:39:21.012Z,7.42
2023-04-21T02:41:47.467Z,7.39
2023-04-21T02:44:13.800Z,7.35
2023-04-21T02:46:43.668Z,7.37
2023-04-21T02:49:10.458Z,7.38
2023-04-21T02:51:37.310Z,7.32
2023-04-21T02:54:03.802Z,7.28
2023-04-21T02:56:31.549Z,7.30
2023-04-21T02:58:57.869Z,7.32
2023-04-21T03:01:24.349Z,7.27
2023-04-21T03:03:51.294Z,7.33
2023-04-21T03:06:17.694Z,7.36
2023-04-21T03:08:45.727Z,7.36
2023-04-21T03:11:12.036Z,7.40
2023-04-21T03:13:38.499Z,7.45
2023-04-21T03:16:05.357Z,7.40
2023-04-21T03:18:35.843Z,7.41
2023-04-21T03:21:02.223Z,7.45
2023-04-21T03:23:28.520Z,7.31
2023-04-21T03:25:54.905Z,7.30
2023-04-21T03:28:21.224Z,7.40
2023-04-21T03:30:47.577Z,7.42
2023-04-21T03:33:14.159Z,7.46
2023-04-21T03:35:40.685Z,7.51
2023-04-21T03:38:08.100Z,7.51
2023-04-21T03:40:35.287Z,7.53
2023-04-21T03:43:02.783Z,7.53
2023-04-21T03:45:29.128Z,7.54
2023-04-21T03:47:58.051Z,7.55
2023-04-21T03:50:24.476Z,7.53
2023-04-21T03:52:50.790Z,7.55
2023-04-21T03:55:17.214Z,7.55
2023-04-21T03:57:43.782Z,7.61
2023-04-21T04:00:10.721Z,7.60
2023-04-21T04:02:40.848Z,7.55
2023-04-21T04:05:08.172Z,7.60
2023-04-21T04:07:35.258Z,7.56
2023-04-21T04:10:01.616Z,7.55
2023-04-21T04:12:28.029Z,7.56
2023-04-21T04:14:54.361Z,7.57
2023-04-21T04:17:20.719Z,7.56
2023-04-21T04:19:47.037Z,7.58
2023-04-21T04:22:13.349Z,7.61
2023-04-21T04:24:39.759Z,7.62
2023-04-21T04:27:06.838Z,7.64
2023-04-21T04:29:33.168Z,7.63
2023-04-21T04:32:01.552Z,7.60
2023-04-21T04:34:27.901Z,7.62
2023-04-21T04:36:54.223Z,7.62
2023-04-21T04:39:22.073Z,7.57
2023-04-21T04:41:48.621Z,7.61
2023-04-21T04:44:17.514Z,7.60
2023-04-21T04:46:45.376Z,7.60
2023-04-21T04:49:11.736Z,7.61
2023-04-21T04:51:38.059Z,7.63
2023-04-21T04:54:04.430Z,7.64
2023-04-21T04:56:31.002Z,7.65
2023-04-21T04:58:57.337Z,7.65
2023-04-21T05:01:29.984Z,7.66
2023-04-21T05:03:57.132Z,7.69
2023-04-21T05:06:23.870Z,7.70
2023-04-21T05:08:50.203Z,7.71
2023-04-21T05:11:16.560Z,7.73
2023-04-21T05:13:42.885Z,7.81
2023-04-21T05:16:10.307Z,7.81
2023-04-21T05:18:37.750Z,7.79
2023-04-21T05:21:04.629Z,7.83
2023-04-21T05:23:31.297Z,7.88
2023-04-21T05:25:57.657Z,7.88
2023-04-21T05:28:24.089Z,7.85
2023-04-21T05:30:54.009Z,7.85
2023-04-21T05:33:21.094Z,7.82
2023-04-21T05:35:47.478Z,7.83
2023-04-21T05:38:13.844Z,7.87
2023-04-21T05:40:40.266Z,7.87
2023-04-21T05:43:06.590Z,7.88
2023-04-21T05:45:32.921Z,7.86
2023-04-21T05:47:59.291Z,7.93
2023-04-21T05:50:28.403Z,7.96
2023-04-21T05:52:54.810Z,7.99
2023-04-21T05:55:21.309Z,8.07
2023-04-21T05:57:47.674Z,8.10
2023-04-21T06:00:14.551Z,8.14
2023-04-21T06:02:41.033Z,8.18
2023-04-21T06:05:08.005Z,8.26
2023-04-21T06:07:37.286Z,8.30
2023-04-21T06:10:04.349Z,8.34
2023-04-21T06:12:30.745Z,8.39
2023-04-21T06:14:57.635Z,8.41
2023-04-21T06:17:24.291Z,8.42
2023-04-21T06:19:54.042Z,8.35
2023-04-21T06:22:20.895Z,8.41
2023-04-21T06:24:47.416Z,8.47
2023-04-21T06:27:13.965Z,8.50
2023-04-21T06:29:42.046Z,8.57
2023-04-21T06:32:09.397Z,8.62
2023-04-21T06:34:35.897Z,8.65
2023-04-21T06:37:02.324Z,8.72
2023-04-21T06:39:28.978Z,8.73
2023-04-21T06:41:55.463Z,8.79
2023-04-21T06:44:26.298Z,8.81
2023-04-21T06:46:52.873Z,8.86
2023-04-21T06:49:19.538Z,8.95
2023-04-21T06:51:46.322Z,9.01
2023-04-21T06:54:12.713Z,9.03
2023-04-21T06:56:39.115Z,9.12
2023-04-21T06:59:05.507Z,9.18
2023-04-21T07:01:32.012Z,9.22
2023-04-21T07:03:58.537Z,9.16
2023-04-21T07:06:25.065Z,9.20
2023-04-21T07:08:51.503Z,9.27
2023-04-21T07:11:17.964Z,9.30
2023-04-21T07:13:44.326Z,9.42
2023-04-21T07:16:10.888Z,9.43
2023-04-21T07:18:39.810Z,9.46
2023-04-21T07:21:06.235Z,9.49
2023-04-21T07:23:32.615Z,9.46
2023-04-21T07:25:59.317Z,9.55
2023-04-21T07:28:26.492Z,9.57
2023-04-21T07:30:52.955Z,9.59
2023-04-21T07:33:19.366Z,9.72
2023-04-21T07:35:45.861Z,9.85
2023-04-21T07:38:12.286Z,9.89
2023-04-21T07:40:38.704Z,10.00
2023-04-21T07:43:05.205Z,10.13
2023-04-21T07:45:31.615Z,10.16
2023-04-21T07:47:59.112Z,10.14
2023-04-21T07:50:25.687Z,10.11
2023-04-21T07:52:52.090Z,10.16
2023-04-21T07:55:18.490Z,10.17
2023-04-21T07:57:44.870Z,10.25
2023-04-21T08:00:11.861Z,10.36
2023-04-21T08:02:41.859Z,10.37
2023-04-21T08:05:08.820Z,10.37
2023-04-21T08:07:35.843Z,10.42
2023-04-21T08:10:02.721Z,10.45
2023-04-21T08:12:29.599Z,10.52
2023-04-21T08:14:55.981Z,10.48
2023-04-21T08:17:22.491Z,10.47
2023-04-21T08:19:49.018Z,10.47
2023-04-21T08:22:15.678Z,10.54
2023-04-21T08:24:42.127Z,10.57
2023-04-21T08:27:08.603Z,10.55
2023-04-21T08:29:34.997Z,10.59
2023-04-21T08:32:01.504Z,10.64
2023-04-21T08:34:28.186Z,10.61
2023-04-21T08:36:54.917Z,10.68
2023-04-21T08:39:21.520Z,10.73
2023-04-21T08:41:48.462Z,10.76
2023-04-21T08:44:15.757Z,10.76
2023-04-21T08:46:44.571Z,10.76
2023-04-21T08:49:12.888Z,10.82
2023-04-21T08:51:39.796Z,10.81
2023-04-21T08:54:06.268Z,10.70
2023-04-21T08:56:32.698Z,10.79
2023-04-21T08:58:59.076Z,10.67
2023-04-21T09:01:25.724Z,10.69
2023-04-21T09:03:52.275Z,10.77
2023-04-21T09:06:19.148Z,10.75
2023-04-21T09:08:55.726Z,10.76
2023-04-21T09:11:22.626Z,10.87
2023-04-21T09:13:49.019Z,10.88
2023-04-21T09:16:18.592Z,10.77
2023-04-21T09:18:45.145Z,10.86
2023-04-21T09:21:18.286Z,10.87
2023-04-21T09:23:50.608Z,10.88
2023-04-21T09:26:18.918Z,11.00
2023-04-21T09:28:47.383Z,11.02
2023-04-21T09:31:16.771Z,11.10
2023-04-21T09:36:25.139Z,11.20
2023-04-21T09:39:12.564Z,11.28
2023-04-21T09:41:40.873Z,11.43
2023-04-21T09:44:07.363Z,11.31
2023-04-21T09:46:36.059Z,11.36
2023-04-21T09:49:03.515Z,11.40
2023-04-21T09:54:25.945Z,11.46
2023-04-21T09:56:58.081Z,11.47
2023-04-21T09:59:37.037Z,11.46
2023-04-21T10:02:06.067Z,11.41
2023-04-21T10:04:35.088Z,11.43
2023-04-21T10:07:02.042Z,11.47
2023-04-21T10:09:37.031Z,11.54
2023-04-21T10:12:04.493Z,11.69
2023-04-21T10:14:31.448Z,11.76
2023-04-21T10:17:04.473Z,11.85
2023-04-21T10:19:36.108Z,11.91
2023-04-21T10:22:02.471Z,11.89
2023-04-21T10:24:30.250Z,11.93
2023-04-21T10:26:59.776Z,11.83
2023-04-21T10:29:40.209Z,12.02
2023-04-21T10:32:31.833Z,12.12
2023-04-21T10:34:58.278Z,12.09
2023-04-21T10:37:24.677Z,12.17
2023-04-21T10:39:55.051Z,12.13
2023-04-21T10:42:29.946Z,12.21
2023-04-21T10:44:56.358Z,12.30
2023-04-21T10:47:44.665Z,12.30
2023-04-21T10:50:28.142Z,12.35
2023-04-21T10:53:12.217Z,12.42
2023-04-21T10:55:39.516Z,12.32
2023-04-21T10:58:09.153Z,12.46
2023-04-21T11:00:38.655Z,12.44
2023-04-21T11:03:07.106Z,12.48
2023-04-21T11:05:39.331Z,12.61
2023-04-21T11:08:15.694Z,12.54
2023-04-21T11:11:00.468Z,12.57
2023-04-21T11:13:33.463Z,12.66
2023-04-21T11:16:07.070Z,12.70
2023-04-21T11:18:38.835Z,12.64
2023-04-21T11:21:24.553Z,12.62
2023-04-21T11:23:56.102Z,12.65
2023-04-21T11:26:38.176Z,12.85
2023-04-21T11:29:08.433Z,13.16
2023-04-21T11:31:36.754Z,13.36
2023-04-21T11:34:05.452Z,13.44
2023-04-21T11:36:36.043Z,13.47
2023-04-21T11:39:10.777Z,13.57
2023-04-21T11:41:43.251Z,13.71
2023-04-21T11:44:11.183Z,13.76
2023-04-21T11:46:38.149Z,13.71
2023-04-21T11:49:06.774Z,13.80
2023-04-21T11:51:41.431Z,13.79
2023-04-21T11:54:13.027Z,13.87
2023-04-21T11:56:42.306Z,13.98
2023-04-21T11:59:14.061Z,14.20
2023-04-21T12:01:47.673Z,14.10
2023-04-21T12:04:16.122Z,14.05
2023-04-21T12:06:43.387Z,13.95
2023-04-21T12:09:17.224Z,14.01
2023-04-21T12:11:49.662Z,13.99
2023-04-21T12:14:18.190Z,13.98
2023-04-21T12:16:44.629Z,13.98
2023-04-21T12:19:11.237Z,14.03
2023-04-21T12:21:39.399Z,14.06
2023-04-21T12:24:06.090Z,14.06
2023-04-21T12:26:32.454Z,14.03
2023-04-21T12:29:00.481Z,14.10
2023-04-21T12:31:26.956Z,14.10
2023-04-21T12:33:53.477Z,14.13
2023-04-21T12:36:20.179Z,14.15
2023-04-21T12:38:46.583Z,14.27
2023-04-21T12:41:12.970Z,14.24
2023-04-21T12:43:39.382Z,14.30
2023-04-21T12:46:05.966Z,14.45
2023-04-21T12:48:32.521Z,14.64
2023-04-21T12:50:58.888Z,14.79
2023-04-21T12:53:25.354Z,14.89
2023-04-21T12:56:03.395Z,14.99
2023-04-21T12:58:31.432Z,15.03
2023-04-21T13:00:57.902Z,15.01
2023-04-21T13:03:24.500Z,15.00
2023-04-21T13:05:51.748Z,15.07
2023-04-21T13:08:18.192Z,15.16
2023-04-21T13:10:45.974Z,15.18
2023-04-21T13:13:12.399Z,15.24
2023-04-21T13:15:39.057Z,15.33
2023-04-21T13:18:05.694Z,15.36
2023-04-21T13:20:32.110Z,15.43
2023-04-21T13:22:58.627Z,15.50
2023-04-21T13:25:25.050Z,15.36
2023-04-21T13:27:53.350Z,15.34
2023-04-21T13:30:20.183Z,15.41
2023-04-21T13:32:46.899Z,15.42
2023-04-21T13:35:13.346Z,15.43
2023-04-21T13:37:41.589Z,15.49
2023-04-21T13:40:09.961Z,15.46
2023-04-21T13:42:37.440Z,15.50
2023-04-21T13:45:04.887Z,15.51
2023-04-21T13:47:34.759Z,15.33
2023-04-21T13:50:01.163Z,15.30
2023-04-21T13:52:27.781Z,15.39
2023-04-21T13:54:54.369Z,15.41
2023-04-21T13:57:21.169Z,15.54
2023-04-21T13:59:47.954Z,15.63
2023-04-21T14:02:14.391Z,15.64
2023-04-21T14:04:41.129Z,15.70
2023-04-21T14:07:08.092Z,15.84
2023-04-21T14:09:35.084Z,15.97
2023-04-21T14:12:03.410Z,16.29
2023-04-21T14:14:38.565Z,16.72
2023-04-21T14:17:06.488Z,17.15
2023-04-21T14:19:33.196Z,17.26
2023-04-21T14:21:59.798Z,17.16
2023-04-21T14:24:28.636Z,17.32
2023-04-21T14:26:56.101Z,17.38
2023-04-21T14:29:22.869Z,17.30
2023-04-21T14:31:50.289Z,17.33
2023-04-21T14:34:16.857Z,17.09
2023-04-21T14:36:43.316Z,17.31
2023-04-21T14:39:10.178Z,17.55
2023-04-21T14:41:36.710Z,17.54
2023-04-21T14:44:03.782Z,17.50
2023-04-21T14:46:30.461Z,17.37
2023-04-21T14:48:57.508Z,17.62
2023-04-21T14:51:24.008Z,17.61
2023-04-21T14:53:51.114Z,17.74
2023-04-21T14:56:18.638Z,17.86
2023-04-21T14:58:45.124Z,17.74
2023-04-21T15:01:11.801Z,17.57
2023-04-21T15:03:38.395Z,17.35
2023-04-21T15:06:05.474Z,17.33
2023-04-21T15:08:32.193Z,17.41
2023-04-21T15:10:58.657Z,17.47
2023-04-21T15:13:25.848Z,17.37
2023-04-21T15:15:52.229Z,17.49
2023-04-21T15:18:18.719Z,17.70
2023-04-21T15:20:45.909Z,17.70
2023-04-21T15:23:12.624Z,17.65
2023-04-21T15:25:39.886Z,17.75
2023-04-21T15:28:07.352Z,17.64
2023-04-21T15:30:34.070Z,17.51
2023-04-21T15:33:01.216Z,17.48
2023-04-21T15:35:27.586Z,17.52
2023-04-21T15:37:54.074Z,17.54
2023-04-21T15:40:20.719Z,17.55
2023-04-21T15:42:47.155Z,17.68
2023-04-21T15:45:13.532Z,17.65
2023-04-21T15:47:39.929Z,17.82
2023-04-21T15:50:07.022Z,17.81
2023-04-21T15:52:36.942Z,17.63
2023-04-21T15:55:03.708Z,17.52
2023-04-21T15:57:30.157Z,17.42
2023-04-21T15:59:56.543Z,17.21
2023-04-21T16:02:23.439Z,17.05
2023-04-21T16:04:50.103Z,17.02
2023-04-21T16:07:16.642Z,16.98
2023-04-21T16:09:43.034Z,16.92
2023-04-21T16:12:10.351Z,17.06
2023-04-21T16:14:53.464Z,17.03
2023-04-21T16:17:26.468Z,17.00
2023-04-21T16:19:53.622Z,16.94
2023-04-21T16:22:20.322Z,16.91
2023-04-21T16:24:46.821Z,16.89
2023-04-21T16:27:13.296Z,16.83
2023-04-21T16:29:39.723Z,16.90
2023-04-21T16:32:06.782Z,17.00
2023-04-21T16:34:33.372Z,17.19
2023-04-21T16:37:00.146Z,17.28
2023-04-21T16:39:27.614Z,17.25
2023-04-21T16:41:53.937Z,17.33
2023-04-21T16:44:20.460Z,17.37
2023-04-21T16:46:46.823Z,17.36
2023-04-21T16:49:13.490Z,17.26
2023-04-21T16:51:44.255Z,17.23
2023-04-21T16:54:13.906Z,17.08
2023-04-21T16:56:40.226Z,17.02
2023-04-21T16:59:09.321Z,16.89
2023-04-21T17:01:35.853Z,16.92
2023-04-21T17:04:02.471Z,16.85
2023-04-21T17:06:29.022Z,16.78
2023-04-21T17:08:59.845Z,16.71
2023-04-21T17:11:31.160Z,16.61
2023-04-21T17:13:57.511Z,16.65
2023-04-21T17:16:24.139Z,16.60
2023-04-21T17:18:50.568Z,16.50
2023-04-21T17:21:16.902Z,16.43
2023-04-21T17:23:43.341Z,16.33
2023-04-21T17:26:12.245Z,16.25
2023-04-21T17:28:39.438Z,16.15
2023-04-21T17:31:15.284Z,16.06
2023-04-21T17:33:43.451Z,16.00
2023-04-21T17:36:09.896Z,15.94
2023-04-21T17:38:36.276Z,15.87
2023-04-21T17:41:04.390Z,15.84
2023-04-21T17:43:30.778Z,15.85
2023-04-21T17:45:57.205Z,15.80
2023-04-21T17:48:23.692Z,15.82
2023-04-21T17:50:50.003Z,15.84
2023-04-21T17:53:17.251Z,15.83
2023-04-21T17:55:43.672Z,15.84
2023-04-21T17:58:12.260Z,15.79
2023-04-21T18:00:39.076Z,15.77
2023-04-21T18:03:05.562Z,15.68
2023-04-21T18:05:32.195Z,15.57
2023-04-21T18:07:58.856Z,15.44
2023-04-21T18:10:28.259Z,15.30
2023-04-21T18:12:56.004Z,15.14
2023-04-21T18:15:22.327Z,15.08
2023-04-21T18:17:48.661Z,15.03
2023-04-21T18:20:15.373Z,14.95
2023-04-21T18:22:43.590Z,14.90
2023-04-21T18:25:11.685Z,14.84
2023-04-21T18:27:39.212Z,14.77
2023-04-21T18:30:08.492Z,14.73
2023-04-21T18:32:36.043Z,14.67
2023-04-21T18:35:03.182Z,14.59
2023-04-21T18:37:29.588Z,14.52
2023-04-21T18:39:56.306Z,14.43
2023-04-21T18:42:22.750Z,14.31
2023-04-21T18:44:49.689Z,14.21
2023-04-21T18:47:16.159Z,14.13
2023-04-21T18:49:42.581Z,14.02
2023-04-21T18:52:09.263Z,13.93
2023-04-21T18:54:35.866Z,13.86
2023-04-21T18:57:03.800Z,13.76
2023-04-21T18:59:30.290Z,13.68
2023-04-21T19:01:56.923Z,13.58
2023-04-21T19:04:23.765Z,13.53
2023-04-21T19:06:50.494Z,13.46
2023-04-21T19:09:17.108Z,13.39
2023-04-21T19:11:43.622Z,13.36
2023-04-21T19:14:10.110Z,13.30
2023-04-21T19:16:36.852Z,13.25
2023-04-21T19:19:04.779Z,13.21
2023-04-21T19:21:31.218Z,13.15
2023-04-21T19:23:58.177Z,13.09
2023-04-21T19:26:24.996Z,13.05
2023-04-21T19:28:51.483Z,13.02
2023-04-21T19:31:21.343Z,12.98
2023-04-21T19:33:49.398Z,12.92
2023-04-21T19:36:15.810Z,12.86
2023-04-21T19:38:42.246Z,12.79
2023-04-21T19:41:08.790Z,12.75
2023-04-21T19:43:35.428Z,12.71
2023-04-21T19:46:01.880Z,12.66
2023-04-21T19:48:28.374Z,12.61
2023-04-21T19:50:54.800Z,12.56
2023-04-21T19:53:21.214Z,12.49
2023-04-21T19:55:48.685Z,12.41
2023-04-21T19:58:28.189Z,12.32
2023-04-21T20:01:03.655Z,12.19
2023-04-21T20:03:31.294Z,12.12
2023-04-21T20:05:57.894Z,12.12
2023-04-21T20:08:24.312Z,11.74
2023-04-21T20:10:50.760Z,11.76
2023-04-21T20:13:17.143Z,12.24
2023-04-21T20:15:43.846Z,12.44
2023-04-21T20:18:10.864Z,12.58
2023-04-21T20:20:37.312Z,12.69
2023-04-21T20:23:03.813Z,12.66
2023-04-21T20:25:30.229Z,12.69
2023-04-21T20:27:56.934Z,12.60
2023-04-21T20:30:23.265Z,12.40
2023-04-21T20:32:50.294Z,12.22
2023-04-21T20:35:17.123Z,11.99
2023-04-21T20:37:44.323Z,11.72
2023-04-21T20:40:11.761Z,11.71
2023-04-21T20:42:38.890Z,11.52
2023-04-21T20:45:06.502Z,11.28
2023-04-21T20:47:33.854Z,11.33
2023-04-21T20:50:00.482Z,11.27
2023-04-21T20:52:26.992Z,11.17
2023-04-21T20:54:53.368Z,11.14
2023-04-21T20:57:19.847Z,11.11
2023-04-21T20:59:46.205Z,11.03
2023-04-21T21:02:12.617Z,11.05
2023-04-21T21:04:39.134Z,10.97
2023-04-21T21:07:06.142Z,10.84
2023-04-21T21:09:32.549Z,10.73
2023-04-21T21:11:59.135Z,10.69
2023-04-21T21:14:25.542Z,10.63
2023-04-21T21:16:54.479Z,10.66
2023-04-21T21:19:21.126Z,10.58
2023-04-21T21:21:47.503Z,10.53
2023-04-21T21:24:13.887Z,10.45
2023-04-21T21:26:42.484Z,10.39
2023-04-21T21:29:09.311Z,10.33
2023-04-21T21:31:35.636Z,10.30
2023-04-21T21:34:03.772Z,10.26
2023-04-21T21:36:31.624Z,10.26
2023-04-21T21:38:57.938Z,10.20
2023-04-21T21:41:24.347Z,10.15
2023-04-21T21:43:50.757Z,10.13
2023-04-21T21:46:18.502Z,10.06
2023-04-21T21:48:45.089Z,9.89
2023-04-21T21:51:11.399Z,9.76
2023-04-21T21:53:37.725Z,9.68
2023-04-21T21:56:04.286Z,9.62
2023-04-21T21:58:30.830Z,9.61
2023-04-21T22:00:57.202Z,9.56
2023-04-21T22:03:23.623Z,9.57
2023-04-21T22:05:50.074Z,9.53
2023-04-21T22:08:16.499Z,9.51
2023-04-21T22:10:43.302Z,9.42
2023-04-21T22:13:09.826Z,9.34
2023-04-21T22:15:37.319Z,9.31
2023-04-21T22:18:04.070Z,9.27
2023-04-21T22:20:30.853Z,9.20
2023-04-21T22:22:57.239Z,9.20
2023-04-21T22:25:29.764Z,9.12
2023-04-21T22:27:57.045Z,9.11
2023-04-21T22:30:23.614Z,8.99
2023-04-21T22:32:50.307Z,8.81
2023-04-21T22:35:16.770Z,8.86
2023-04-21T22:37:43.154Z,8.92
2023-04-21T22:40:10.320Z,8.96
2023-04-21T22:42:37.012Z,8.95
2023-04-21T22:45:05.178Z,8.86
2023-04-21T22:47:33.279Z,8.88
2023-04-21T22:49:59.658Z,8.86
2023-04-21T22:52:26.807Z,8.86
2023-04-21T22:54:53.571Z,8.81
2023-04-21T22:57:20.886Z,8.73
2023-04-21T22:59:47.370Z,8.72
2023-04-21T23:02:13.907Z,8.70
2023-04-21T23:04:40.314Z,8.64
2023-04-21T23:07:06.678Z,8.62
2023-04-21T23:09:32.978Z,8.60
2023-04-21T23:11:59.525Z,8.55
2023-04-21T23:14:26.057Z,8.43
2023-04-21T23:16:52.462Z,8.42
2023-04-21T23:19:19.330Z,8.37
2023-04-21T23:21:46.377Z,8.36
2023-04-21T23:24:12.944Z,8.33
2023-04-21T23:26:39.276Z,8.22
2023-04-21T23:29:05.886Z,8.26
2023-04-21T23:31:32.337Z,8.27
2023-04-21T23:33:59.986Z,8.19
2023-04-21T23:36:29.433Z,8.14
2023-04-21T23:38:55.985Z,8.09
2023-04-21T23:41:22.375Z,8.08
2023-04-21T23:43:48.760Z,8.06
2023-04-21T23:46:15.404Z,8.02
2023-04-21T23:48:41.847Z,7.99
2023-04-21T23:51:08.294Z,7.97
2023-04-21T23:53:34.829Z,7.94
2023-04-21T23:56:01.189Z,7.88
2023-04-21T23:58:27.991Z,7.86
